sensor_id;sensor_type;location;lat;lon;timestamp;pressure;altitude;pressure_sealevel;temperature;humidity
67738;BME280;54534;43.612;1.572;2022-12-26T00:00:33;99498.72;;;16.21;51.40
67738;BME280;54534;43.612;1.572;2022-12-26T00:02:58;99498.81;;;16.19;51.39
67738;BME280;54534;43.612;1.572;2022-12-26T00:05:24;99498.72;;;16.21;51.68
67738;BME280;54534;43.612;1.572;2022-12-26T00:07:49;99497.88;;;16.20;51.85
67738;BME280;54534;43.612;1.572;2022-12-26T00:10:15;99504.03;;;16.21;51.64
67738;BME280;54534;43.612;1.572;2022-12-26T00:12:40;99490.78;;;16.21;51.50
67738;BME280;54534;43.612;1.572;2022-12-26T00:15:06;99483.66;;;16.21;51.64
67738;BME280;54534;43.612;1.572;2022-12-26T00:17:31;99487.25;;;16.20;51.45
67738;BME280;54534;43.612;1.572;2022-12-26T00:19:56;99488.13;;;16.21;51.44
67738;BME280;54534;43.612;1.572;2022-12-26T00:22:22;99499.59;;;16.21;51.48
67738;BME280;54534;43.612;1.572;2022-12-26T00:24:47;99498.72;;;16.21;51.49
67738;BME280;54534;43.612;1.572;2022-12-26T00:27:12;99511.13;;;16.20;51.59
67738;BME280;54534;43.612;1.572;2022-12-26T00:29:38;99504.03;;;16.21;51.56
67738;BME280;54534;43.612;1.572;2022-12-26T00:32:03;99498.72;;;16.21;51.66
67738;BME280;54534;43.612;1.572;2022-12-26T00:34:29;99496.16;;;16.19;51.88
67738;BME280;54534;43.612;1.572;2022-12-26T00:36:54;99497.00;;;16.20;51.71
67738;BME280;54534;43.612;1.572;2022-12-26T00:39:19;99503.19;;;16.20;51.66
67738;BME280;54534;43.612;1.572;2022-12-26T00:41:45;99503.19;;;16.20;51.66
67738;BME280;54534;43.612;1.572;2022-12-26T00:44:10;99504.03;;;16.21;51.43
67738;BME280;54534;43.612;1.572;2022-12-26T00:46:36;99509.34;;;16.21;51.61
67738;BME280;54534;43.612;1.572;2022-12-26T00:49:01;99510.28;;;16.20;51.63
67738;BME280;54534;43.612;1.572;2022-12-26T00:51:26;99512.94;;;16.20;51.62
67738;BME280;54534;43.612;1.572;2022-12-26T00:53:52;99514.66;;;16.21;51.79
67738;BME280;54534;43.612;1.572;2022-12-26T00:56:17;99514.66;;;16.21;51.53
67738;BME280;54534;43.612;1.572;2022-12-26T00:58:43;99510.28;;;16.20;51.84
67738;BME280;54534;43.612;1.572;2022-12-26T01:01:17;99510.19;;;16.21;51.30
67738;BME280;54534;43.612;1.572;2022-12-26T01:03:44;99514.66;;;16.21;51.79
67738;BME280;54534;43.612;1.572;2022-12-26T01:06:10;99515.59;;;16.20;51.93
67738;BME280;54534;43.612;1.572;2022-12-26T01:08:36;99518.25;;;16.20;51.58
67738;BME280;54534;43.612;1.572;2022-12-26T01:11:04;99519.22;;;16.19;51.62
67738;BME280;54534;43.612;1.572;2022-12-26T01:13:29;99519.09;;;16.20;51.46
67738;BME280;54534;43.612;1.572;2022-12-26T01:15:55;99525.25;;;16.21;51.87
67738;BME280;54534;43.612;1.572;2022-12-26T01:18:21;99529.72;;;16.20;51.75
67738;BME280;54534;43.612;1.572;2022-12-26T01:20:47;99523.53;;;16.20;51.84
67738;BME280;54534;43.612;1.572;2022-12-26T01:23:12;99525.34;;;16.19;51.56
67738;BME280;54534;43.612;1.572;2022-12-26T01:25:38;99528.84;;;16.20;51.76
67738;BME280;54534;43.612;1.572;2022-12-26T01:28:04;99524.41;;;16.20;51.91
67738;BME280;54534;43.612;1.572;2022-12-26T01:30:30;99524.50;;;16.19;51.92
67738;BME280;54534;43.612;1.572;2022-12-26T01:32:55;99528.00;;;16.19;51.78
67738;BME280;54534;43.612;1.572;2022-12-26T01:35:21;99533.31;;;16.19;51.70
67738;BME280;54534;43.612;1.572;2022-12-26T01:37:46;99533.31;;;16.19;51.54
67738;BME280;54534;43.612;1.572;2022-12-26T01:40:11;99538.59;;;16.19;51.30
67738;BME280;54534;43.612;1.572;2022-12-26T01:42:39;99536.91;;;16.18;51.66
67738;BME280;54534;43.612;1.572;2022-12-26T01:45:20;99547.41;;;16.20;51.62
67738;BME280;54534;43.612;1.572;2022-12-26T01:48:12;99550.94;;;16.20;51.61
67738;BME280;54534;43.612;1.572;2022-12-26T01:53:16;99552.72;;;16.20;51.53
67738;BME280;54534;43.612;1.572;2022-12-26T01:55:48;99559.00;;;16.19;51.64
67738;BME280;54534;43.612;1.572;2022-12-26T01:58:20;99564.31;;;16.19;51.77
67738;BME280;54534;43.612;1.572;2022-12-26T02:00:47;99570.44;;;16.19;51.97
67738;BME280;54534;43.612;1.572;2022-12-26T02:03:13;99574.91;;;16.19;51.81
67738;BME280;54534;43.612;1.572;2022-12-26T02:05:58;99590.84;;;16.19;51.66
67738;BME280;54534;43.612;1.572;2022-12-26T02:08:31;99588.19;;;16.19;51.74
67738;BME280;54534;43.612;1.572;2022-12-26T02:11:21;99593.50;;;16.19;51.69
67738;BME280;54534;43.612;1.572;2022-12-26T02:13:48;99596.22;;;16.17;51.48
67738;BME280;54534;43.612;1.572;2022-12-26T02:16:15;99605.03;;;16.18;51.70
67738;BME280;54534;43.612;1.572;2022-12-26T02:18:41;99604.19;;;16.17;51.78
67738;BME280;54534;43.612;1.572;2022-12-26T02:24:06;99608.56;;;16.18;51.82
67738;BME280;54534;43.612;1.572;2022-12-26T02:35:08;99598.88;;;16.17;51.80
67738;BME280;54534;43.612;1.572;2022-12-26T02:37:47;99588.28;;;16.17;51.76
67738;BME280;54534;43.612;1.572;2022-12-26T02:43:09;99586.59;;;16.16;51.55
67738;BME280;54534;43.612;1.572;2022-12-26T02:45:51;99591.78;;;16.18;51.61
67738;BME280;54534;43.612;1.572;2022-12-26T02:57:21;99605.22;;;16.15;51.71
67738;BME280;54534;43.612;1.572;2022-12-26T03:00:16;99620.09;;;16.17;51.75
67738;BME280;54534;43.612;1.572;2022-12-26T03:03:13;99617.56;;;16.16;51.77
67738;BME280;54534;43.612;1.572;2022-12-26T03:06:13;99609.59;;;16.16;51.89
67738;BME280;54534;43.612;1.572;2022-12-26T03:09:07;99604.38;;;16.14;51.61
67738;BME280;54534;43.612;1.572;2022-12-26T03:12:01;99605.22;;;16.15;51.75
67738;BME280;54534;43.612;1.572;2022-12-26T03:14:51;99605.22;;;16.15;51.52
67738;BME280;54534;43.612;1.572;2022-12-26T03:17:26;99611.41;;;16.15;51.63
67738;BME280;54534;43.612;1.572;2022-12-26T03:20:04;99616.69;;;16.15;51.78
67738;BME280;54534;43.612;1.572;2022-12-26T03:22:40;99611.41;;;16.15;51.82
67738;BME280;54534;43.612;1.572;2022-12-26T03:25:41;99603.44;;;16.15;51.82
67738;BME280;54534;43.612;1.572;2022-12-26T03:28:27;99605.22;;;16.15;51.81
67738;BME280;54534;43.612;1.572;2022-12-26T03:30:55;99602.59;;;16.15;51.52
67738;BME280;54534;43.612;1.572;2022-12-26T03:36:06;99615.84;;;16.15;52.06
67738;BME280;54534;43.612;1.572;2022-12-26T03:44:35;99609.69;;;16.14;51.70
67738;BME280;54534;43.612;1.572;2022-12-26T03:47:41;99598.13;;;16.15;51.73
67738;BME280;54534;43.612;1.572;2022-12-26T03:50:34;99589.44;;;16.13;51.81
67738;BME280;54534;43.612;1.572;2022-12-26T03:53:20;99583.38;;;16.11;51.96
67738;BME280;54534;43.612;1.572;2022-12-26T03:56:11;99580.59;;;16.12;52.00
67738;BME280;54534;43.612;1.572;2022-12-26T03:59:08;99587.63;;;16.14;51.69
67738;BME280;54534;43.612;1.572;2022-12-26T04:01:56;99592.16;;;16.11;51.75
67738;BME280;54534;43.612;1.572;2022-12-26T04:04:44;99599.19;;;16.12;51.78
67738;BME280;54534;43.612;1.572;2022-12-26T04:07:31;99593.88;;;16.12;51.87
67738;BME280;54534;43.612;1.572;2022-12-26T04:10:24;99588.56;;;16.12;51.82
67738;BME280;54534;43.612;1.572;2022-12-26T04:13:21;99588.56;;;16.12;51.84
67738;BME280;54534;43.612;1.572;2022-12-26T04:16:30;99592.16;;;16.11;52.03
67738;BME280;54534;43.612;1.572;2022-12-26T04:19:43;99590.38;;;16.12;51.79
67738;BME280;54534;43.612;1.572;2022-12-26T04:22:17;99591.22;;;16.12;51.92
67738;BME280;54534;43.612;1.572;2022-12-26T04:25:10;99587.72;;;16.12;51.82
67738;BME280;54534;43.612;1.572;2022-12-26T04:27:56;99585.06;;;16.12;52.20
67738;BME280;54534;43.612;1.572;2022-12-26T04:30:45;99590.38;;;16.12;51.75
67738;BME280;54534;43.612;1.572;2022-12-26T04:33:41;99595.66;;;16.12;51.79
67738;BME280;54534;43.612;1.572;2022-12-26T04:36:32;99608.94;;;16.12;52.12
67738;BME280;54534;43.612;1.572;2022-12-26T04:39:20;99605.41;;;16.11;51.75
67738;BME280;54534;43.612;1.572;2022-12-26T04:42:06;99599.19;;;16.12;51.95
67738;BME280;54534;43.612;1.572;2022-12-26T04:44:51;99601.84;;;16.12;51.89
67738;BME280;54534;43.612;1.572;2022-12-26T04:47:17;99605.41;;;16.11;51.72
67738;BME280;54534;43.612;1.572;2022-12-26T04:49:44;99613.31;;;16.13;51.70
67738;BME280;54534;43.612;1.572;2022-12-26T04:52:28;99613.31;;;16.13;51.98
67738;BME280;54534;43.612;1.572;2022-12-26T04:55:14;99608.84;;;16.14;51.87
67738;BME280;54534;43.612;1.572;2022-12-26T04:57:40;99600.13;;;16.11;51.98
67738;BME280;54534;43.612;1.572;2022-12-26T05:00:06;99608.84;;;16.14;51.95
67738;BME280;54534;43.612;1.572;2022-12-26T05:02:31;99608.84;;;16.14;52.25
67738;BME280;54534;43.612;1.572;2022-12-26T05:05:15;99600.03;;;16.13;52.01
67738;BME280;54534;43.612;1.572;2022-12-26T05:07:59;99614.16;;;16.14;51.79
67738;BME280;54534;43.612;1.572;2022-12-26T05:10:43;99614.97;;;16.14;51.86
67738;BME280;54534;43.612;1.572;2022-12-26T05:13:08;99604.47;;;16.12;51.57
67738;BME280;54534;43.612;1.572;2022-12-26T05:15:35;99619.47;;;16.14;51.65
67738;BME280;54534;43.612;1.572;2022-12-26T05:18:20;99627.41;;;16.14;51.69
67738;BME280;54534;43.612;1.572;2022-12-26T05:21:15;99638.97;;;16.12;51.68
67738;BME280;54534;43.612;1.572;2022-12-26T05:24:00;99644.28;;;16.12;51.96
67738;BME280;54534;43.612;1.572;2022-12-26T05:26:44;99641.63;;;16.12;51.87
67738;BME280;54534;43.612;1.572;2022-12-26T05:29:28;99633.66;;;16.12;51.71
67738;BME280;54534;43.612;1.572;2022-12-26T05:31:53;99632.81;;;16.12;51.74
67738;BME280;54534;43.612;1.572;2022-12-26T05:34:19;99633.66;;;16.12;51.87
67738;BME280;54534;43.612;1.572;2022-12-26T05:36:54;99642.47;;;16.13;51.95
67738;BME280;54534;43.612;1.572;2022-12-26T05:39:24;99642.47;;;16.13;52.13
67738;BME280;54534;43.612;1.572;2022-12-26T05:41:49;99638.97;;;16.12;51.83
67738;BME280;54534;43.612;1.572;2022-12-26T05:44:15;99639.81;;;16.13;51.82
67738;BME280;54534;43.612;1.572;2022-12-26T05:46:40;99645.13;;;16.13;52.02
67738;BME280;54534;43.612;1.572;2022-12-26T05:49:07;99652.22;;;16.12;51.63
67738;BME280;54534;43.612;1.572;2022-12-26T05:51:33;99653.09;;;16.13;51.64
67738;BME280;54534;43.612;1.572;2022-12-26T05:53:59;99647.78;;;16.13;51.87
67738;BME280;54534;43.612;1.572;2022-12-26T05:56:24;99654.88;;;16.12;51.66
67738;BME280;54534;43.612;1.572;2022-12-26T05:58:58;99664.56;;;16.14;51.72
67738;BME280;54534;43.612;1.572;2022-12-26T06:01:25;99657.53;;;16.12;51.61
67738;BME280;54534;43.612;1.572;2022-12-26T06:03:54;99659.25;;;16.14;51.70
67738;BME280;54534;43.612;1.572;2022-12-26T06:06:21;99668.16;;;16.12;51.58
67738;BME280;54534;43.612;1.572;2022-12-26T06:08:49;99669.88;;;16.14;51.96
67738;BME280;54534;43.612;1.572;2022-12-26T06:11:15;99670.81;;;16.12;51.89
67738;BME280;54534;43.612;1.572;2022-12-26T06:13:41;99672.59;;;16.12;51.58
67738;BME280;54534;43.612;1.572;2022-12-26T06:16:09;99681.41;;;16.12;51.50
67738;BME280;54534;43.612;1.572;2022-12-26T06:18:35;99691.09;;;16.14;51.65
67738;BME280;54534;43.612;1.572;2022-12-26T06:21:09;99693.75;;;16.14;51.64
67738;BME280;54534;43.612;1.572;2022-12-26T06:23:35;99697.34;;;16.12;51.74
67738;BME280;54534;43.612;1.572;2022-12-26T06:26:01;99699.06;;;16.14;51.71
67738;BME280;54534;43.612;1.572;2022-12-26T06:28:27;99694.69;;;16.12;51.79
67738;BME280;54534;43.612;1.572;2022-12-26T06:30:52;99697.34;;;16.12;51.50
67738;BME280;54534;43.612;1.572;2022-12-26T06:33:18;99700.00;;;16.12;51.82
67738;BME280;54534;43.612;1.572;2022-12-26T06:35:44;99700.00;;;16.12;51.82
67738;BME280;54534;43.612;1.572;2022-12-26T06:38:10;99700.00;;;16.12;51.56
67738;BME280;54534;43.612;1.572;2022-12-26T06:40:39;99714.97;;;16.14;51.58
67738;BME280;54534;43.612;1.572;2022-12-26T06:43:06;99710.59;;;16.12;51.82
67738;BME280;54534;43.612;1.572;2022-12-26T06:45:31;99706.22;;;16.11;51.69
67738;BME280;54534;43.612;1.572;2022-12-26T06:47:56;99713.25;;;16.12;51.41
67738;BME280;54534;43.612;1.572;2022-12-26T06:50:24;99708.88;;;16.11;51.71
67738;BME280;54534;43.612;1.572;2022-12-26T06:52:49;99709.75;;;16.12;51.71
67738;BME280;54534;43.612;1.572;2022-12-26T06:55:14;99706.22;;;16.11;51.66
67738;BME280;54534;43.612;1.572;2022-12-26T06:57:40;99706.22;;;16.11;51.53
67738;BME280;54534;43.612;1.572;2022-12-26T07:00:06;99704.44;;;16.12;51.90
67738;BME280;54534;43.612;1.572;2022-12-26T07:02:31;99715.03;;;16.12;51.64
67738;BME280;54534;43.612;1.572;2022-12-26T07:04:57;99711.53;;;16.11;51.95
67738;BME280;54534;43.612;1.572;2022-12-26T07:07:22;99715.16;;;16.10;51.80
67738;BME280;54534;43.612;1.572;2022-12-26T07:09:47;99718.66;;;16.11;51.82
67738;BME280;54534;43.612;1.572;2022-12-26T07:12:13;99716.84;;;16.11;51.52
67738;BME280;54534;43.612;1.572;2022-12-26T07:14:38;99723.88;;;16.12;51.89
67738;BME280;54534;43.612;1.572;2022-12-26T07:17:04;99721.31;;;16.11;51.69
67738;BME280;54534;43.612;1.572;2022-12-26T07:19:29;99737.22;;;16.11;51.88
67738;BME280;54534;43.612;1.572;2022-12-26T07:21:55;99741.69;;;16.10;51.81
67738;BME280;54534;43.612;1.572;2022-12-26T07:24:21;99755.69;;;16.12;51.71
67738;BME280;54534;43.612;1.572;2022-12-26T07:26:47;99766.41;;;16.11;51.69
67738;BME280;54534;43.612;1.572;2022-12-26T07:29:13;99778.81;;;16.10;51.58
67738;BME280;54534;43.612;1.572;2022-12-26T07:31:40;99791.13;;;16.11;51.76
67738;BME280;54534;43.612;1.572;2022-12-26T07:34:05;99792.16;;;16.09;51.68
67738;BME280;54534;43.612;1.572;2022-12-26T07:36:31;99795.59;;;16.11;51.60
67738;BME280;54534;43.612;1.572;2022-12-26T07:38:56;99794.72;;;16.10;51.89
67738;BME280;54534;43.612;1.572;2022-12-26T07:41:22;99796.41;;;16.11;51.91
67738;BME280;54534;43.612;1.572;2022-12-26T07:44:07;99794.72;;;16.10;51.77
67738;BME280;54534;43.612;1.572;2022-12-26T07:46:33;99788.56;;;16.10;51.78
67738;BME280;54534;43.612;1.572;2022-12-26T07:48:58;99793.00;;;16.09;51.66
67738;BME280;54534;43.612;1.572;2022-12-26T07:51:23;99796.53;;;16.10;51.65
67738;BME280;54534;43.612;1.572;2022-12-26T07:53:49;99798.31;;;16.09;51.67
67738;BME280;54534;43.612;1.572;2022-12-26T07:56:14;99809.78;;;16.10;51.65
67738;BME280;54534;43.612;1.572;2022-12-26T07:58:40;99805.34;;;16.10;51.82
67738;BME280;54534;43.612;1.572;2022-12-26T08:01:06;99815.97;;;16.10;51.96
67738;BME280;54534;43.612;1.572;2022-12-26T08:03:32;99814.25;;;16.09;51.54
67738;BME280;54534;43.612;1.572;2022-12-26T08:05:58;99809.78;;;16.10;51.89
67738;BME280;54534;43.612;1.572;2022-12-26T08:08:24;99816.88;;;16.09;51.50
67738;BME280;54534;43.612;1.572;2022-12-26T08:11:00;99820.41;;;16.10;51.77
67738;BME280;54534;43.612;1.572;2022-12-26T08:13:26;99823.16;;;16.08;51.85
67738;BME280;54534;43.612;1.572;2022-12-26T08:15:52;99824.00;;;16.09;51.78
67738;BME280;54534;43.612;1.572;2022-12-26T08:18:18;99830.16;;;16.09;51.66
67738;BME280;54534;43.612;1.572;2022-12-26T08:20:43;99829.22;;;16.10;51.84
67738;BME280;54534;43.612;1.572;2022-12-26T08:23:08;99833.78;;;16.08;51.62
67738;BME280;54534;43.612;1.572;2022-12-26T08:25:34;99851.38;;;16.09;51.71
67738;BME280;54534;43.612;1.572;2022-12-26T08:27:59;99869.94;;;16.09;51.90
67738;BME280;54534;43.612;1.572;2022-12-26T08:30:24;99883.22;;;16.09;51.65
67738;BME280;54534;43.612;1.572;2022-12-26T08:32:50;99896.47;;;16.09;51.90
67738;BME280;54534;43.612;1.572;2022-12-26T08:35:16;99897.44;;;16.08;51.83
67738;BME280;54534;43.612;1.572;2022-12-26T08:37:42;99895.63;;;16.09;51.93
67738;BME280;54534;43.612;1.572;2022-12-26T08:40:07;99898.25;;;16.09;51.68
67738;BME280;54534;43.612;1.572;2022-12-26T08:42:33;99913.34;;;16.08;51.83
67738;BME280;54534;43.612;1.572;2022-12-26T08:44:58;99908.13;;;16.07;51.87
67738;BME280;54534;43.612;1.572;2022-12-26T08:47:24;99923.97;;;16.08;51.84
67738;BME280;54534;43.612;1.572;2022-12-26T08:49:51;99920.34;;;16.09;51.66
67738;BME280;54534;43.612;1.572;2022-12-26T08:52:16;99932.75;;;16.09;51.90
67738;BME280;54534;43.612;1.572;2022-12-26T08:54:42;99935.41;;;16.09;51.50
67738;BME280;54534;43.612;1.572;2022-12-26T08:57:07;99937.31;;;16.07;51.88
67738;BME280;54534;43.612;1.572;2022-12-26T08:59:33;99946.13;;;16.07;51.92
67738;BME280;54534;43.612;1.572;2022-12-26T09:01:59;99949.63;;;16.08;51.77
67738;BME280;54534;43.612;1.572;2022-12-26T09:04:24;99967.34;;;16.07;51.62
67738;BME280;54534;43.612;1.572;2022-12-26T09:06:50;99976.16;;;16.08;51.68
67738;BME280;54534;43.612;1.572;2022-12-26T09:09:15;99984.97;;;16.08;51.92
67738;BME280;54534;43.612;1.572;2022-12-26T09:11:41;99986.78;;;16.08;51.79
67738;BME280;54534;43.612;1.572;2022-12-26T09:14:06;99993.88;;;16.07;51.93
67738;BME280;54534;43.612;1.572;2022-12-26T09:16:35;99997.28;;;16.09;51.66
67738;BME280;54534;43.612;1.572;2022-12-26T09:19:02;100002.59;;;16.09;51.77
67738;BME280;54534;43.612;1.572;2022-12-26T09:21:29;100006.19;;;16.08;51.79
67738;BME280;54534;43.612;1.572;2022-12-26T09:23:59;100012.34;;;16.09;51.70
67738;BME280;54534;43.612;1.572;2022-12-26T09:26:25;100014.16;;;16.08;51.96
67738;BME280;54534;43.612;1.572;2022-12-26T09:28:51;100014.16;;;16.08;51.61
67738;BME280;54534;43.612;1.572;2022-12-26T09:31:20;100024.78;;;16.08;51.79
67738;BME280;54534;43.612;1.572;2022-12-26T09:33:46;100029.13;;;16.09;51.76
67738;BME280;54534;43.612;1.572;2022-12-26T09:36:18;100028.34;;;16.07;51.60
67738;BME280;54534;43.612;1.572;2022-12-26T09:38:45;100035.38;;;16.08;51.74
67738;BME280;54534;43.612;1.572;2022-12-26T09:44:43;100042.53;;;16.06;51.71
67738;BME280;54534;43.612;1.572;2022-12-26T09:47:21;100038.09;;;16.07;51.99
67738;BME280;54534;43.612;1.572;2022-12-26T09:49:55;100052.22;;;16.07;51.77
67738;BME280;54534;43.612;1.572;2022-12-26T09:52:26;100047.84;;;16.06;51.92
67738;BME280;54534;43.612;1.572;2022-12-26T09:54:59;100048.72;;;16.07;51.50
67738;BME280;54534;43.612;1.572;2022-12-26T09:57:37;100049.56;;;16.07;51.45
67738;BME280;54534;43.612;1.572;2022-12-26T10:00:06;100049.56;;;16.07;51.93
67738;BME280;54534;43.612;1.572;2022-12-26T10:02:31;100054.94;;;16.06;51.85
67738;BME280;54534;43.612;1.572;2022-12-26T10:04:59;100060.19;;;16.07;51.79
67738;BME280;54534;43.612;1.572;2022-12-26T10:07:29;100059.31;;;16.07;51.70
67738;BME280;54534;43.612;1.572;2022-12-26T10:12:59;100063.78;;;16.06;51.83
67738;BME280;54534;43.612;1.572;2022-12-26T10:16:21;100075.25;;;16.07;51.60
67738;BME280;54534;43.612;1.572;2022-12-26T10:18:42;100076.16;;;16.06;51.57
67738;BME280;54534;43.612;1.572;2022-12-26T10:21:30;100069.06;;;16.06;51.79
67738;BME280;54534;43.612;1.572;2022-12-26T10:24:01;100072.69;;;16.05;51.51
67738;BME280;54534;43.612;1.572;2022-12-26T10:26:32;100077.03;;;16.06;51.80
67738;BME280;54534;43.612;1.572;2022-12-26T10:31:35;100078.00;;;16.05;51.48
67738;BME280;54534;43.612;1.572;2022-12-26T10:34:39;100084.13;;;16.06;51.86
67738;BME280;54534;43.612;1.572;2022-12-26T10:39:30;100078.00;;;16.05;51.64
67738;BME280;54534;43.612;1.572;2022-12-26T10:42:02;100082.41;;;16.05;51.63
67738;BME280;54534;43.612;1.572;2022-12-26T10:44:32;100096.56;;;16.05;51.82
67738;BME280;54534;43.612;1.572;2022-12-26T10:49:46;100099.22;;;16.05;51.70
67738;BME280;54534;43.612;1.572;2022-12-26T10:52:13;100093.03;;;16.05;51.62
67738;BME280;54534;43.612;1.572;2022-12-26T10:54:40;100084.19;;;16.04;51.80
67738;BME280;54534;43.612;1.572;2022-12-26T10:57:06;100087.72;;;16.05;51.88
67738;BME280;54534;43.612;1.572;2022-12-26T10:59:47;100088.59;;;16.05;51.84
67738;BME280;54534;43.612;1.572;2022-12-26T11:02:22;100085.94;;;16.05;51.81
67738;BME280;54534;43.612;1.572;2022-12-26T11:05:11;100083.31;;;16.05;51.91
67738;BME280;54534;43.612;1.572;2022-12-26T11:07:50;100085.00;;;16.06;51.81
67738;BME280;54534;43.612;1.572;2022-12-26T11:10:18;100087.72;;;16.05;51.88
67738;BME280;54534;43.612;1.572;2022-12-26T11:12:48;100082.41;;;16.05;52.02
67738;BME280;54534;43.612;1.572;2022-12-26T11:15:38;100082.41;;;16.05;51.86
67738;BME280;54534;43.612;1.572;2022-12-26T11:20:42;100087.72;;;16.05;51.87
67738;BME280;54534;43.612;1.572;2022-12-26T11:23:31;100093.91;;;16.05;52.08
67738;BME280;54534;43.612;1.572;2022-12-26T11:25:59;100088.59;;;16.05;52.15
67738;BME280;54534;43.612;1.572;2022-12-26T11:28:34;100088.59;;;16.05;51.73
67738;BME280;54534;43.612;1.572;2022-12-26T11:31:03;100087.72;;;16.05;51.97
67738;BME280;54534;43.612;1.572;2022-12-26T11:33:30;100108.88;;;16.06;52.00
67738;BME280;54534;43.612;1.572;2022-12-26T11:36:20;100103.56;;;16.06;51.81
67738;BME280;54534;43.612;1.572;2022-12-26T11:38:48;100101.88;;;16.05;51.97
67738;BME280;54534;43.612;1.572;2022-12-26T11:41:37;100095.66;;;16.05;51.82
67738;BME280;54534;43.612;1.572;2022-12-26T11:49:01;100085.94;;;16.05;51.94
67738;BME280;54534;43.612;1.572;2022-12-26T11:51:41;100092.94;;;16.06;51.93
67738;BME280;54534;43.612;1.572;2022-12-26T11:56:48;100092.16;;;16.04;52.05
67738;BME280;54534;43.612;1.572;2022-12-26T11:59:23;100086.84;;;16.04;52.09
67738;BME280;54534;43.612;1.572;2022-12-26T12:02:15;100087.72;;;16.05;51.78
67738;BME280;54534;43.612;1.572;2022-12-26T12:04:41;100082.41;;;16.05;51.98
67738;BME280;54534;43.612;1.572;2022-12-26T12:07:29;100083.31;;;16.05;52.18
67738;BME280;54534;43.612;1.572;2022-12-26T12:13:02;100083.31;;;16.05;51.99
67738;BME280;54534;43.612;1.572;2022-12-26T12:15:37;100079.75;;;16.05;52.21
67738;BME280;54534;43.612;1.572;2022-12-26T12:18:14;100076.25;;;16.04;52.29
67738;BME280;54534;43.612;1.572;2022-12-26T12:21:13;100078.00;;;16.05;52.39
67738;BME280;54534;43.612;1.572;2022-12-26T12:29:32;100084.13;;;16.06;52.10
67738;BME280;54534;43.612;1.572;2022-12-26T12:40:43;100077.09;;;16.05;52.16
67738;BME280;54534;43.612;1.572;2022-12-26T12:43:24;100082.41;;;16.05;51.78
67738;BME280;54534;43.612;1.572;2022-12-26T12:46:08;100077.09;;;16.05;52.44
67738;BME280;54534;43.612;1.572;2022-12-26T13:05:28;100054.13;;;16.05;52.13
67738;BME280;54534;43.612;1.572;2022-12-26T13:08:05;100051.47;;;16.05;51.99
67738;BME280;54534;43.612;1.572;2022-12-26T13:10:34;100047.00;;;16.06;52.38
67738;BME280;54534;43.612;1.572;2022-12-26T13:13:36;100053.16;;;16.06;52.19
67738;BME280;54534;43.612;1.572;2022-12-26T13:16:13;100059.31;;;16.07;52.27
67738;BME280;54534;43.612;1.572;2022-12-26T13:18:50;100061.97;;;16.07;52.47
67738;BME280;54534;43.612;1.572;2022-12-26T13:21:17;100047.84;;;16.06;52.12
67738;BME280;54534;43.612;1.572;2022-12-26T13:23:49;100047.84;;;16.06;52.49
67738;BME280;54534;43.612;1.572;2022-12-26T13:26:41;100045.19;;;16.06;52.07
67738;BME280;54534;43.612;1.572;2022-12-26T13:29:34;100053.16;;;16.06;52.39
67738;BME280;54534;43.612;1.572;2022-12-26T13:32:01;100047.84;;;16.06;52.26
67738;BME280;54534;43.612;1.572;2022-12-26T13:34:29;100053.16;;;16.06;52.22
67738;BME280;54534;43.612;1.572;2022-12-26T13:36:56;100054.88;;;16.07;52.19
67738;BME280;54534;43.612;1.572;2022-12-26T13:41:51;100065.50;;;16.07;52.19
67738;BME280;54534;43.612;1.572;2022-12-26T13:44:36;100076.09;;;16.07;52.04
67738;BME280;54534;43.612;1.572;2022-12-26T13:47:02;100081.41;;;16.07;52.52
67738;BME280;54534;43.612;1.572;2022-12-26T13:49:40;100080.47;;;16.08;52.43
67738;BME280;54534;43.612;1.572;2022-12-26T14:05:30;100071.66;;;16.08;52.28
67738;BME280;54534;43.612;1.572;2022-12-26T14:13:44;100075.19;;;16.08;52.40
67738;BME280;54534;43.612;1.572;2022-12-26T14:16:23;100083.13;;;16.08;52.68
67738;BME280;54534;43.612;1.572;2022-12-26T14:21:48;100083.13;;;16.08;52.55
67738;BME280;54534;43.612;1.572;2022-12-26T14:26:49;100092.88;;;16.08;52.36
67738;BME280;54534;43.612;1.572;2022-12-26T14:32:44;100092.78;;;16.09;52.25
67738;BME280;54534;43.612;1.572;2022-12-26T14:41:17;100105.28;;;16.07;52.26
67738;BME280;54534;43.612;1.572;2022-12-26T14:44:14;100106.06;;;16.09;52.44
67738;BME280;54534;43.612;1.572;2022-12-26T14:49:22;100102.63;;;16.07;52.64
67738;BME280;54534;43.612;1.572;2022-12-26T14:51:49;100101.78;;;16.07;52.37
67738;BME280;54534;43.612;1.572;2022-12-26T14:56:50;100113.16;;;16.09;52.82
67738;BME280;54534;43.612;1.572;2022-12-26T14:59:32;100110.50;;;16.09;52.54
67738;BME280;54534;43.612;1.572;2022-12-26T15:02:29;100106.06;;;16.09;52.40
67738;BME280;54534;43.612;1.572;2022-12-26T15:05:35;100114.88;;;16.10;52.66
67738;BME280;54534;43.612;1.572;2022-12-26T15:11:17;100111.34;;;16.09;52.43
67738;BME280;54534;43.612;1.572;2022-12-26T15:14:18;100114.97;;;16.08;52.66
67738;BME280;54534;43.612;1.572;2022-12-26T15:17:02;100112.31;;;16.08;52.82
67738;BME280;54534;43.612;1.572;2022-12-26T15:22:55;100120.19;;;16.10;52.53
67738;BME280;54534;43.612;1.572;2022-12-26T15:25:43;100123.69;;;16.10;52.59
67738;BME280;54534;43.612;1.572;2022-12-26T15:33:28;100126.34;;;16.10;52.67
67738;BME280;54534;43.612;1.572;2022-12-26T15:39:04;100130.78;;;16.10;52.83
67738;BME280;54534;43.612;1.572;2022-12-26T15:44:13;100140.47;;;16.11;52.50
67738;BME280;54534;43.612;1.572;2022-12-26T15:46:44;100125.59;;;16.08;52.99
67738;BME280;54534;43.612;1.572;2022-12-26T15:54:58;100127.22;;;16.11;52.84
67738;BME280;54534;43.612;1.572;2022-12-26T15:57:58;100116.66;;;16.09;52.74
67738;BME280;54534;43.612;1.572;2022-12-26T16:00:36;100123.69;;;16.10;52.59
67738;BME280;54534;43.612;1.572;2022-12-26T16:03:24;100131.66;;;16.10;52.63
67738;BME280;54534;43.612;1.572;2022-12-26T16:14:43;100155.53;;;16.10;52.71